sensor_id;sensor_type;location;lat;lon;timestamp;pressure;altitude;pressure_sealevel;temperature;humidity
28588;BME280;15787;49.662;10.162;2024-01-27T00:02:31;100822.88;;;3.65;94.86
28588;BME280;15787;49.662;10.162;2024-01-27T00:05:04;100825.38;;;3.46;95.14
28588;BME280;15787;49.662;10.162;2024-01-27T00:07:38;100819.72;;;3.42;95.11
28588;BME280;15787;49.662;10.162;2024-01-27T00:10:11;100822.00;;;3.40;96.04
28588;BME280;15787;49.662;10.162;2024-01-27T00:12:46;100822.47;;;3.42;96.34
28588;BME280;15787;49.662;10.162;2024-01-27T00:15:19;100824.03;;;3.31;96.28
28588;BME280;15787;49.662;10.162;2024-01-27T00:17:52;100826.75;;;3.52;96.37
28588;BME280;15787;49.662;10.162;2024-01-27T00:20:25;100829.59;;;3.43;96.25
28588;BME280;15787;49.662;10.162;2024-01-27T00:22:58;100816.78;;;3.27;96.54
28588;BME280;15787;49.662;10.162;2024-01-27T00:25:31;100827.84;;;3.39;96.08
28588;BME280;15787;49.662;10.162;2024-01-27T00:28:06;100827.03;;;3.38;96.05
28588;BME280;15787;49.662;10.162;2024-01-27T00:30:39;100838.22;;;3.42;96.17
28588;BME280;15787;49.662;10.162;2024-01-27T00:33:12;100837.25;;;3.26;96.21
28588;BME280;15787;49.662;10.162;2024-01-27T00:35:45;100835.22;;;3.35;96.64
28588;BME280;15787;49.662;10.162;2024-01-27T00:38:18;100840.59;;;3.31;96.61
28588;BME280;15787;49.662;10.162;2024-01-27T00:45:22;100836.06;;;3.14;97.12
28588;BME280;15787;49.662;10.162;2024-01-27T00:47:59;100831.28;;;3.03;97.18
28588;BME280;15787;49.662;10.162;2024-01-27T00:50:32;100823.94;;;3.07;97.69
28588;BME280;15787;49.662;10.162;2024-01-27T00:53:05;100828.25;;;2.96;97.53
28588;BME280;15787;49.662;10.162;2024-01-27T00:55:38;100826.25;;;3.05;97.67
28588;BME280;15787;49.662;10.162;2024-01-27T00:58:11;100835.66;;;3.04;97.06
28588;BME280;15787;49.662;10.162;2024-01-27T01:00:45;100836.41;;;2.92;97.99
28588;BME280;15787;49.662;10.162;2024-01-27T01:03:18;100846.09;;;2.98;97.83
28588;BME280;15787;49.662;10.162;2024-01-27T01:05:51;100840.97;;;2.88;97.51
28588;BME280;15787;49.662;10.162;2024-01-27T01:08:25;100846.00;;;2.66;97.72
28588;BME280;15787;49.662;10.162;2024-01-27T01:10:57;100839.56;;;2.62;97.87
28588;BME280;15787;49.662;10.162;2024-01-27T01:13:30;100837.50;;;2.79;97.93
28588;BME280;15787;49.662;10.162;2024-01-27T01:16:06;100850.25;;;2.63;97.93
28588;BME280;15787;49.662;10.162;2024-01-27T01:18:39;100853.47;;;2.65;97.99
28588;BME280;15787;49.662;10.162;2024-01-27T01:21:13;100843.72;;;2.68;98.25
28588;BME280;15787;49.662;10.162;2024-01-27T01:23:46;100854.16;;;2.33;98.11
28588;BME280;15787;49.662;10.162;2024-01-27T01:26:19;100858.94;;;2.44;99.14
28588;BME280;15787;49.662;10.162;2024-01-27T01:28:52;100864.84;;;2.64;98.53
28588;BME280;15787;49.662;10.162;2024-01-27T01:31:26;100876.47;;;2.48;98.86
28588;BME280;15787;49.662;10.162;2024-01-27T01:33:59;100877.13;;;2.45;98.82
28588;BME280;15787;49.662;10.162;2024-01-27T01:36:32;100873.88;;;2.43;99.92
28588;BME280;15787;49.662;10.162;2024-01-27T01:39:06;100882.22;;;2.64;99.14
28588;BME280;15787;49.662;10.162;2024-01-27T01:41:40;100895.13;;;2.72;98.45
28588;BME280;15787;49.662;10.162;2024-01-27T01:44:14;100894.81;;;2.74;98.35
28588;BME280;15787;49.662;10.162;2024-01-27T01:46:48;100897.38;;;2.79;97.74
28588;BME280;15787;49.662;10.162;2024-01-27T01:49:21;100890.81;;;2.63;97.37
28588;BME280;15787;49.662;10.162;2024-01-27T01:51:54;100890.50;;;2.64;96.96
28588;BME280;15787;49.662;10.162;2024-01-27T01:54:27;100895.66;;;2.66;97.19
28588;BME280;15787;49.662;10.162;2024-01-27T01:57:03;100898.97;;;2.59;96.79
28588;BME280;15787;49.662;10.162;2024-01-27T01:59:36;100899.94;;;2.54;96.49
28588;BME280;15787;49.662;10.162;2024-01-27T02:02:14;100903.31;;;2.60;96.31
28588;BME280;15787;49.662;10.162;2024-01-27T02:04:47;100907.91;;;2.47;96.48
28588;BME280;15787;49.662;10.162;2024-01-27T02:07:21;100910.06;;;2.42;96.67
28588;BME280;15787;49.662;10.162;2024-01-27T02:09:54;100907.59;;;2.49;97.16
28588;BME280;15787;49.662;10.162;2024-01-27T02:12:26;100904.69;;;2.45;96.88
28588;BME280;15787;49.662;10.162;2024-01-27T02:14:59;100912.97;;;2.08;97.32
28588;BME280;15787;49.662;10.162;2024-01-27T02:17:34;100913.38;;;2.27;97.48
28588;BME280;15787;49.662;10.162;2024-01-27T02:20:07;100921.44;;;2.32;97.80
28588;BME280;15787;49.662;10.162;2024-01-27T02:22:41;100922.19;;;2.12;97.69
28588;BME280;15787;49.662;10.162;2024-01-27T02:25:16;100912.25;;;2.19;97.98
28588;BME280;15787;49.662;10.162;2024-01-27T02:27:49;100922.59;;;2.31;98.30
28588;BME280;15787;49.662;10.162;2024-01-27T02:30:22;100927.19;;;2.18;98.31
28588;BME280;15787;49.662;10.162;2024-01-27T02:32:55;100923.88;;;1.87;98.75
28588;BME280;15787;49.662;10.162;2024-01-27T02:35:28;100920.72;;;2.14;99.22
28588;BME280;15787;49.662;10.162;2024-01-27T02:38:01;100938.94;;;1.98;99.19
28588;BME280;15787;49.662;10.162;2024-01-27T02:40:35;100941.50;;;2.03;98.83
28588;BME280;15787;49.662;10.162;2024-01-27T02:43:08;100954.28;;;2.08;99.14
28588;BME280;15787;49.662;10.162;2024-01-27T02:45:41;100963.03;;;2.10;98.78
28588;BME280;15787;49.662;10.162;2024-01-27T02:48:14;100955.22;;;2.20;98.59
28588;BME280;15787;49.662;10.162;2024-01-27T02:50:47;100954.28;;;2.08;98.72
28588;BME280;15787;49.662;10.162;2024-01-27T02:53:20;100956.66;;;2.26;98.51
28588;BME280;15787;49.662;10.162;2024-01-27T02:55:54;100955.22;;;2.20;98.52
28588;BME280;15787;49.662;10.162;2024-01-27T02:58:27;100953.59;;;2.28;98.52
28588;BME280;15787;49.662;10.162;2024-01-27T03:01:01;100956.34;;;2.28;98.91
28588;BME280;15787;49.662;10.162;2024-01-27T03:03:34;100957.06;;;2.08;98.95
28588;BME280;15787;49.662;10.162;2024-01-27T03:06:07;100941.34;;;2.08;99.60
28588;BME280;15787;49.662;10.162;2024-01-27T03:08:40;100942.72;;;2.31;99.18
28588;BME280;15787;49.662;10.162;2024-01-27T03:11:14;100934.19;;;2.16;99.01
28588;BME280;15787;49.662;10.162;2024-01-27T03:13:47;100938.81;;;2.24;98.96
28588;BME280;15787;49.662;10.162;2024-01-27T03:16:20;100946.97;;;2.12;99.08
28588;BME280;15787;49.662;10.162;2024-01-27T03:18:53;100953.84;;;1.97;99.36
28588;BME280;15787;49.662;10.162;2024-01-27T03:21:27;100957.22;;;2.03;99.52
28588;BME280;15787;49.662;10.162;2024-01-27T03:23:59;100966.91;;;2.09;99.08
28588;BME280;15787;49.662;10.162;2024-01-27T03:26:34;100958.53;;;1.97;99.13
28588;BME280;15787;49.662;10.162;2024-01-27T03:29:07;100966.47;;;1.98;99.06
28588;BME280;15787;49.662;10.162;2024-01-27T03:31:40;100967.94;;;1.96;98.88
28588;BME280;15787;49.662;10.162;2024-01-27T03:34:13;100966.97;;;2.00;99.36
28588;BME280;15787;49.662;10.162;2024-01-27T03:36:48;100962.91;;;1.98;99.69
28588;BME280;15787;49.662;10.162;2024-01-27T03:39:21;100972.28;;;2.05;99.66
28588;BME280;15787;49.662;10.162;2024-01-27T03:41:55;100970.50;;;2.09;99.32
28588;BME280;15787;49.662;10.162;2024-01-27T03:44:28;100958.88;;;1.86;99.71
28588;BME280;15787;49.662;10.162;2024-01-27T03:47:01;100966.16;;;1.91;100.00
28588;BME280;15787;49.662;10.162;2024-01-27T03:49:34;100964.69;;;2.02;99.94
28588;BME280;15787;49.662;10.162;2024-01-27T03:52:08;100964.88;;;1.80;99.77
28588;BME280;15787;49.662;10.162;2024-01-27T03:54:42;100960.50;;;1.87;100.00
28588;BME280;15787;49.662;10.162;2024-01-27T03:57:16;100961.91;;;2.11;100.00
28588;BME280;15787;49.662;10.162;2024-01-27T03:59:49;100963.22;;;2.05;99.69
28588;BME280;15787;49.662;10.162;2024-01-27T04:02:22;100967.56;;;2.14;99.50
28588;BME280;15787;49.662;10.162;2024-01-27T04:04:55;100969.19;;;2.15;99.30
28588;BME280;15787;49.662;10.162;2024-01-27T04:07:28;100972.28;;;2.05;98.88
28588;BME280;15787;49.662;10.162;2024-01-27T04:10:02;100968.22;;;2.11;98.45
28588;BME280;15787;49.662;10.162;2024-01-27T04:12:36;100984.31;;;1.92;98.16
28588;BME280;15787;49.662;10.162;2024-01-27T04:15:10;100985.25;;;2.05;97.93
28588;BME280;15787;49.662;10.162;2024-01-27T04:17:43;100992.75;;;1.96;98.09
28588;BME280;15787;49.662;10.162;2024-01-27T04:20:16;101001.28;;;2.11;98.03
28588;BME280;15787;49.662;10.162;2024-01-27T04:22:49;100993.69;;;2.08;98.03
28588;BME280;15787;49.662;10.162;2024-01-27T04:25:22;101000.66;;;1.97;97.33
28588;BME280;15787;49.662;10.162;2024-01-27T04:27:56;101001.81;;;1.87;97.73
28588;BME280;15787;49.662;10.162;2024-01-27T04:30:30;100995.16;;;1.63;97.18
28588;BME280;15787;49.662;10.162;2024-01-27T04:33:03;100997.63;;;1.56;97.95
28588;BME280;15787;49.662;10.162;2024-01-27T04:35:39;101011.38;;;1.64;97.47
28588;BME280;15787;49.662;10.162;2024-01-27T04:38:12;101011.88;;;1.66;98.11
28588;BME280;15787;49.662;10.162;2024-01-27T04:40:45;101004.56;;;1.79;98.94
28588;BME280;15787;49.662;10.162;2024-01-27T04:43:19;100998.91;;;1.67;99.76
28588;BME280;15787;49.662;10.162;2024-01-27T04:45:52;101004.09;;;1.77;100.00
28588;BME280;15787;49.662;10.162;2024-01-27T04:48:25;101000.53;;;1.68;100.00
28588;BME280;15787;49.662;10.162;2024-01-27T04:50:58;101002.81;;;1.74;100.00
28588;BME280;15787;49.662;10.162;2024-01-27T04:53:31;101001.53;;;1.55;100.00
28588;BME280;15787;49.662;10.162;2024-01-27T04:56:05;101002.97;;;1.78;100.00
28588;BME280;15787;49.662;10.162;2024-01-27T04:58:41;101008.78;;;1.85;100.00
28588;BME280;15787;49.662;10.162;2024-01-27T05:01:16;101016.25;;;1.93;100.00
28588;BME280;15787;49.662;10.162;2024-01-27T05:03:49;101023.22;;;1.56;99.51
28588;BME280;15787;49.662;10.162;2024-01-27T05:06:22;101019.97;;;1.63;100.00
28588;BME280;15787;49.662;10.162;2024-01-27T05:08:56;101017.84;;;1.43;100.00
28588;BME280;15787;49.662;10.162;2024-01-27T05:11:30;101024.84;;;1.74;100.00
28588;BME280;15787;49.662;10.162;2024-01-27T05:14:05;101019.97;;;1.46;100.00
28588;BME280;15787;49.662;10.162;2024-01-27T05:16:38;101017.19;;;1.97;100.00
28588;BME280;15787;49.662;10.162;2024-01-27T05:19:11;101019.63;;;1.99;100.00
28588;BME280;15787;49.662;10.162;2024-01-27T05:21:44;101021.41;;;1.95;99.97
28588;BME280;15787;49.662;10.162;2024-01-27T05:24:17;101018.19;;;1.84;99.77
28588;BME280;15787;49.662;10.162;2024-01-27T05:26:50;101014.44;;;1.63;100.00
28588;BME280;15787;49.662;10.162;2024-01-27T05:29:25;101008.94;;;1.71;100.00
28588;BME280;15787;49.662;10.162;2024-01-27T05:31:59;101015.94;;;1.77;99.84
28588;BME280;15787;49.662;10.162;2024-01-27T05:34:32;101017.03;;;1.68;100.00
28588;BME280;15787;49.662;10.162;2024-01-27T05:37:05;101018.03;;;1.72;99.87
28588;BME280;15787;49.662;10.162;2024-01-27T05:39:38;101028.69;;;1.48;99.65
28588;BME280;15787;49.662;10.162;2024-01-27T05:42:11;101038.09;;;1.38;100.00
28588;BME280;15787;49.662;10.162;2024-01-27T05:44:45;101030.34;;;1.66;100.00
28588;BME280;15787;49.662;10.162;2024-01-27T05:47:18;101033.88;;;1.58;100.00
28588;BME280;15787;49.662;10.162;2024-01-27T05:49:51;101040.81;;;1.21;100.00
28588;BME280;15787;49.662;10.162;2024-01-27T05:52:24;101045.88;;;1.62;100.00
28588;BME280;15787;49.662;10.162;2024-01-27T05:54:57;101044.13;;;1.57;100.00
28588;BME280;15787;49.662;10.162;2024-01-27T05:57:30;101045.03;;;1.36;100.00
28588;BME280;15787;49.662;10.162;2024-01-27T06:00:06;101045.84;;;1.36;100.00
28588;BME280;15787;49.662;10.162;2024-01-27T06:02:41;101041.97;;;1.46;100.00
28588;BME280;15787;49.662;10.162;2024-01-27T06:05:14;101042.78;;;1.46;100.00
28588;BME280;15787;49.662;10.162;2024-01-27T06:07:47;101049.78;;;1.61;100.00
28588;BME280;15787;49.662;10.162;2024-01-27T06:10:20;101057.88;;;1.66;100.00
28588;BME280;15787;49.662;10.162;2024-01-27T06:12:55;101060.09;;;1.38;100.00
28588;BME280;15787;49.662;10.162;2024-01-27T06:15:30;101067.44;;;1.68;100.00
28588;BME280;15787;49.662;10.162;2024-01-27T06:18:04;101069.06;;;1.52;100.00
28588;BME280;15787;49.662;10.162;2024-01-27T06:20:37;101065.78;;;1.42;100.00
28588;BME280;15787;49.662;10.162;2024-01-27T06:23:12;101067.56;;;1.46;100.00
28588;BME280;15787;49.662;10.162;2024-01-27T06:25:45;101077.63;;;1.42;100.00
28588;BME280;15787;49.662;10.162;2024-01-27T06:28:18;101067.59;;;1.55;100.00
28588;BME280;15787;49.662;10.162;2024-01-27T06:30:52;101071.47;;;1.54;100.00
28588;BME280;15787;49.662;10.162;2024-01-27T06:33:25;101082.47;;;1.54;100.00
28588;BME280;15787;49.662;10.162;2024-01-27T06:35:59;101089.88;;;1.27;100.00
28588;BME280;15787;49.662;10.162;2024-01-27T06:38:32;101092.03;;;1.39;100.00
28588;BME280;15787;49.662;10.162;2024-01-27T06:41:05;101102.41;;;1.42;99.55
28588;BME280;15787;49.662;10.162;2024-01-27T06:43:38;101094.91;;;1.34;99.34
28588;BME280;15787;49.662;10.162;2024-01-27T06:46:12;101094.75;;;1.31;99.59
28588;BME280;15787;49.662;10.162;2024-01-27T06:48:45;101094.44;;;1.32;99.84
28588;BME280;15787;49.662;10.162;2024-01-27T06:51:18;101103.78;;;1.22;99.54
28588;BME280;15787;49.662;10.162;2024-01-27T06:53:51;101107.19;;;1.19;99.80
28588;BME280;15787;49.662;10.162;2024-01-27T06:56:25;101109.13;;;1.19;100.00
28588;BME280;15787;49.662;10.162;2024-01-27T06:58:57;101112.66;;;1.11;100.00
28588;BME280;15787;49.662;10.162;2024-01-27T07:01:32;101114.59;;;1.10;100.00
28588;BME280;15787;49.662;10.162;2024-01-27T07:04:05;101110.19;;;1.09;100.00
28588;BME280;15787;49.662;10.162;2024-01-27T07:06:38;101113.13;;;0.74;100.00
28588;BME280;15787;49.662;10.162;2024-01-27T07:09:11;101109.66;;;0.90;100.00
28588;BME280;15787;49.662;10.162;2024-01-27T07:11:44;101114.78;;;1.22;100.00
28588;BME280;15787;49.662;10.162;2024-01-27T07:14:17;101124.56;;;1.37;100.00
28588;BME280;15787;49.662;10.162;2024-01-27T07:16:51;101120.94;;;1.19;100.00
28588;BME280;15787;49.662;10.162;2024-01-27T07:19:24;101117.75;;;1.35;100.00
28588;BME280;15787;49.662;10.162;2024-01-27T07:21:57;101128.09;;;1.29;100.00
28588;BME280;15787;49.662;10.162;2024-01-27T07:24:31;101123.19;;;1.17;100.00
28588;BME280;15787;49.662;10.162;2024-01-27T07:27:04;101129.56;;;1.35;100.00
28588;BME280;15787;49.662;10.162;2024-01-27T07:29:37;101133.50;;;1.51;100.00
28588;BME280;15787;49.662;10.162;2024-01-27T07:32:12;101132.03;;;1.54;100.00
28588;BME280;15787;49.662;10.162;2024-01-27T07:34:45;101134.75;;;1.45;100.00
28588;BME280;15787;49.662;10.162;2024-01-27T07:37:18;101135.59;;;1.46;100.00
28588;BME280;15787;49.662;10.162;2024-01-27T07:39:52;101130.47;;;1.70;100.00
28588;BME280;15787;49.662;10.162;2024-01-27T07:42:25;101141.75;;;1.51;100.00
28588;BME280;15787;49.662;10.162;2024-01-27T07:44:58;101141.09;;;1.46;99.98
28588;BME280;15787;49.662;10.162;2024-01-27T07:47:33;101145.13;;;1.40;100.00
28588;BME280;15787;49.662;10.162;2024-01-27T07:50:06;101138.69;;;1.61;100.00
28588;BME280;15787;49.662;10.162;2024-01-27T07:52:41;101140.78;;;1.56;99.61
28588;BME280;15787;49.662;10.162;2024-01-27T07:55:14;101134.91;;;1.40;99.60
28588;BME280;15787;49.662;10.162;2024-01-27T07:57:48;101132.53;;;1.56;100.00
28588;BME280;15787;49.662;10.162;2024-01-27T08:00:21;101120.06;;;1.50;100.00
28588;BME280;15787;49.662;10.162;2024-01-27T08:02:56;101122.13;;;1.36;100.00
28588;BME280;15787;49.662;10.162;2024-01-27T08:05:29;101125.72;;;1.45;100.00
28588;BME280;15787;49.662;10.162;2024-01-27T08:08:02;101127.19;;;1.68;100.00
28588;BME280;15787;49.662;10.162;2024-01-27T08:10:35;101127.72;;;1.78;100.00
28588;BME280;15787;49.662;10.162;2024-01-27T08:13:08;101135.53;;;2.11;100.00
28588;BME280;15787;49.662;10.162;2024-01-27T08:15:41;101136.66;;;2.18;100.00
28588;BME280;15787;49.662;10.162;2024-01-27T08:18:16;101136.16;;;2.16;100.00
28588;BME280;15787;49.662;10.162;2024-01-27T08:20:49;101142.16;;;2.01;99.71
28588;BME280;15787;49.662;10.162;2024-01-27T08:23:22;101138.44;;;2.40;99.21
28588;BME280;15787;49.662;10.162;2024-01-27T08:25:55;101142.47;;;2.51;98.99
28588;BME280;15787;49.662;10.162;2024-01-27T08:28:27;101146.53;;;2.45;98.51
28588;BME280;15787;49.662;10.162;2024-01-27T08:31:01;101148.47;;;2.62;98.11
28588;BME280;15787;49.662;10.162;2024-01-27T08:33:35;101144.22;;;2.73;97.88
28588;BME280;15787;49.662;10.162;2024-01-27T08:36:13;101145.66;;;2.79;97.27
28588;BME280;15787;49.662;10.162;2024-01-27T08:38:46;101153.44;;;2.85;97.10
28588;BME280;15787;49.662;10.162;2024-01-27T08:41:19;101149.19;;;2.96;96.23
28588;BME280;15787;49.662;10.162;2024-01-27T08:43:52;101148.94;;;3.18;95.95
28588;BME280;15787;49.662;10.162;2024-01-27T08:46:25;101151.19;;;3.25;94.85
28588;BME280;15787;49.662;10.162;2024-01-27T08:48:59;101153.69;;;3.47;94.14
28588;BME280;15787;49.662;10.162;2024-01-27T08:51:33;101162.63;;;3.44;93.19
28588;BME280;15787;49.662;10.162;2024-01-27T08:54:06;101167.56;;;3.68;92.34
28588;BME280;15787;49.662;10.162;2024-01-27T08:56:39;101173.00;;;3.76;91.29
28588;BME280;15787;49.662;10.162;2024-01-27T08:59:13;101174.69;;;3.98;91.21
28588;BME280;15787;49.662;10.162;2024-01-27T09:01:46;101177.66;;;4.14;89.31
28588;BME280;15787;49.662;10.162;2024-01-27T09:04:20;101167.22;;;4.19;88.82
28588;BME280;15787;49.662;10.162;2024-01-27T09:06:53;101165.22;;;4.20;88.91
28588;BME280;15787;49.662;10.162;2024-01-27T09:09:26;101165.53;;;4.27;88.39
28588;BME280;15787;49.662;10.162;2024-01-27T09:12:00;101167.47;;;4.26;88.49
28588;BME280;15787;49.662;10.162;2024-01-27T09:14:33;101163.91;;;4.26;87.54
28588;BME280;15787;49.662;10.162;2024-01-27T09:17:07;101171.78;;;4.36;87.20
28588;BME280;15787;49.662;10.162;2024-01-27T09:19:41;101159.88;;;4.56;87.42
28588;BME280;15787;49.662;10.162;2024-01-27T09:22:15;101158.22;;;4.76;87.31
28588;BME280;15787;49.662;10.162;2024-01-27T09:24:47;101160.22;;;4.87;86.50
28588;BME280;15787;49.662;10.162;2024-01-27T09:27:20;101167.13;;;5.26;84.70
28588;BME280;15787;49.662;10.162;2024-01-27T09:30:01;101171.84;;;5.26;84.54
28588;BME280;15787;49.662;10.162;2024-01-27T09:32:35;101176.13;;;5.35;83.39
28588;BME280;15787;49.662;10.162;2024-01-27T09:35:09;101169.69;;;5.55;82.57
28588;BME280;15787;49.662;10.162;2024-01-27T09:37:42;101171.03;;;5.49;82.28
28588;BME280;15787;49.662;10.162;2024-01-27T09:40:17;101175.09;;;5.52;81.76
28588;BME280;15787;49.662;10.162;2024-01-27T09:42:51;101183.06;;;5.53;81.03
28588;BME280;15787;49.662;10.162;2024-01-27T09:45:26;101168.66;;;5.96;80.82
28588;BME280;15787;49.662;10.162;2024-01-27T09:48:00;101169.44;;;6.09;80.00
28588;BME280;15787;49.662;10.162;2024-01-27T09:50:35;101178.88;;;6.60;78.39
28588;BME280;15787;49.662;10.162;2024-01-27T09:53:08;101170.38;;;6.96;77.60
28588;BME280;15787;49.662;10.162;2024-01-27T09:55:43;101172.13;;;7.32;76.00
28588;BME280;15787;49.662;10.162;2024-01-27T09:58:16;101171.94;;;7.40;75.75
28588;BME280;15787;49.662;10.162;2024-01-27T10:00:49;101168.28;;;8.02;75.79
28588;BME280;15787;49.662;10.162;2024-01-27T10:03:23;101175.97;;;7.74;75.00
28588;BME280;15787;49.662;10.162;2024-01-27T10:06:00;101179.72;;;7.66;75.28
28588;BME280;15787;49.662;10.162;2024-01-27T10:08:34;101178.81;;;7.15;74.42
28588;BME280;15787;49.662;10.162;2024-01-27T10:11:08;101181.78;;;7.07;75.58
28588;BME280;15787;49.662;10.162;2024-01-27T10:13:41;101189.44;;;7.72;75.97
28588;BME280;15787;49.662;10.162;2024-01-27T10:16:14;101194.72;;;7.61;75.24
28588;BME280;15787;49.662;10.162;2024-01-27T10:18:47;101192.75;;;7.78;74.13
28588;BME280;15787;49.662;10.162;2024-01-27T10:21:22;101190.94;;;7.38;74.87
28588;BME280;15787;49.662;10.162;2024-01-27T10:23:57;101191.03;;;7.73;74.55
28588;BME280;15787;49.662;10.162;2024-01-27T10:26:31;101182.34;;;7.43;74.33
28588;BME280;15787;49.662;10.162;2024-01-27T10:29:05;101178.75;;;7.43;75.57
28588;BME280;15787;49.662;10.162;2024-01-27T10:31:38;101188.72;;;7.28;75.19
28588;BME280;15787;49.662;10.162;2024-01-27T10:34:11;101182.16;;;7.21;76.72
28588;BME280;15787;49.662;10.162;2024-01-27T10:36:48;101179.34;;;7.05;75.86
28588;BME280;15787;49.662;10.162;2024-01-27T10:39:22;101175.75;;;7.05;76.23
28588;BME280;15787;49.662;10.162;2024-01-27T10:41:57;101177.22;;;7.45;76.54
28588;BME280;15787;49.662;10.162;2024-01-27T10:44:37;101177.59;;;7.28;74.96
28588;BME280;15787;49.662;10.162;2024-01-27T10:47:14;101179.72;;;7.66;76.46
28588;BME280;15787;49.662;10.162;2024-01-27T10:49:51;101183.06;;;7.72;74.66
28588;BME280;15787;49.662;10.162;2024-01-27T10:52:29;101183.69;;;7.65;74.16
28588;BME280;15787;49.662;10.162;2024-01-27T10:55:04;101175.91;;;8.05;74.82
28588;BME280;15787;49.662;10.162;2024-01-27T10:57:39;101184.22;;;7.71;74.34
28588;BME280;15787;49.662;10.162;2024-01-27T11:00:14;101182.34;;;8.09;74.01
28588;BME280;15787;49.662;10.162;2024-01-27T11:02:48;101184.06;;;8.49;72.93
28588;BME280;15787;49.662;10.162;2024-01-27T11:05:27;101177.06;;;8.39;72.11
28588;BME280;15787;49.662;10.162;2024-01-27T11:08:02;101183.25;;;8.48;72.57
28588;BME280;15787;49.662;10.162;2024-01-27T11:10:35;101179.59;;;8.63;71.10
28588;BME280;15787;49.662;10.162;2024-01-27T11:13:09;101173.59;;;8.61;71.34
28588;BME280;15787;49.662;10.162;2024-01-27T11:15:50;101173.53;;;8.23;71.38
28588;BME280;15787;49.662;10.162;2024-01-27T11:18:24;101165.50;;;8.95;71.67
28588;BME280;15787;49.662;10.162;2024-01-27T11:20:58;101163.38;;;8.88;71.91
28588;BME280;15787;49.662;10.162;2024-01-27T11:23:34;101164.06;;;8.81;70.54
28588;BME280;15787;49.662;10.162;2024-01-27T11:26:09;101153.50;;;8.33;70.82
28588;BME280;15787;49.662;10.162;2024-01-27T11:28:46;101137.69;;;9.21;71.96
28588;BME280;15787;49.662;10.162;2024-01-27T11:31:20;101130.34;;;9.09;70.30
28588;BME280;15787;49.662;10.162;2024-01-27T11:33:53;101139.50;;;8.87;70.32
28588;BME280;15787;49.662;10.162;2024-01-27T11:36:27;101146.06;;;8.98;68.86
28588;BME280;15787;49.662;10.162;2024-01-27T11:39:02;101143.81;;;8.65;69.57
28588;BME280;15787;49.662;10.162;2024-01-27T11:41:35;101139.53;;;8.90;69.69
28588;BME280;15787;49.662;10.162;2024-01-27T11:44:12;101146.25;;;9.09;69.95
28588;BME280;15787;49.662;10.162;2024-01-27T11:46:47;101147.09;;;9.13;69.26
28588;BME280;15787;49.662;10.162;2024-01-27T11:49:21;101145.44;;;8.66;68.69
28588;BME280;15787;49.662;10.162;2024-01-27T11:51:55;101137.66;;;9.40;68.92
28588;BME280;15787;49.662;10.162;2024-01-27T11:54:30;101134.38;;;9.12;67.82
28588;BME280;15787;49.662;10.162;2024-01-27T11:57:04;101139.13;;;9.11;67.73
28588;BME280;15787;49.662;10.162;2024-01-27T11:59:38;101133.16;;;9.58;68.40
28588;BME280;15787;49.662;10.162;2024-01-27T12:02:12;101132.31;;;9.09;67.20
28588;BME280;15787;49.662;10.162;2024-01-27T12:04:47;101129.72;;;8.77;67.86
28588;BME280;15787;49.662;10.162;2024-01-27T12:07:20;101122.94;;;8.56;66.52
28588;BME280;15787;49.662;10.162;2024-01-27T12:09:55;101120.22;;;9.24;66.44
28588;BME280;15787;49.662;10.162;2024-01-27T12:12:28;101118.28;;;8.82;67.01
28588;BME280;15787;49.662;10.162;2024-01-27T12:15:01;101118.78;;;9.56;66.48
28588;BME280;15787;49.662;10.162;2024-01-27T12:17:34;101106.41;;;8.85;65.51
28588;BME280;15787;49.662;10.162;2024-01-27T12:20:14;101115.78;;;9.19;65.52
28588;BME280;15787;49.662;10.162;2024-01-27T12:22:48;101107.16;;;9.05;66.01
28588;BME280;15787;49.662;10.162;2024-01-27T12:25:23;101115.28;;;9.36;66.80
28588;BME280;15787;49.662;10.162;2024-01-27T12:27:56;101121.91;;;9.77;65.37
28588;BME280;15787;49.662;10.162;2024-01-27T12:30:32;101123.75;;;9.43;66.13
28588;BME280;15787;49.662;10.162;2024-01-27T12:33:09;101119.66;;;9.86;65.41
28588;BME280;15787;49.662;10.162;2024-01-27T12:35:45;101135.72;;;9.44;65.17
28588;BME280;15787;49.662;10.162;2024-01-27T12:38:18;101146.94;;;9.02;64.82
28588;BME280;15787;49.662;10.162;2024-01-27T12:40:53;101136.84;;;9.17;65.39
28588;BME280;15787;49.662;10.162;2024-01-27T12:43:25;101136.88;;;8.98;66.21
28588;BME280;15787;49.662;10.162;2024-01-27T12:45:58;101129.09;;;9.29;66.16
28588;BME280;15787;49.662;10.162;2024-01-27T12:48:31;101125.59;;;9.59;67.30
28588;BME280;15787;49.662;10.162;2024-01-27T12:51:05;101131.47;;;9.27;65.68
28588;BME280;15787;49.662;10.162;2024-01-27T12:53:38;101138.47;;;9.40;64.51
28588;BME280;15787;49.662;10.162;2024-01-27T12:56:15;101130.56;;;9.23;63.44
28588;BME280;15787;49.662;10.162;2024-01-27T12:58:48;101125.69;;;8.94;63.99
28588;BME280;15787;49.662;10.162;2024-01-27T13:01:22;101132.28;;;9.28;62.86
28588;BME280;15787;49.662;10.162;2024-01-27T13:03:55;101139.25;;;9.18;63.75
28588;BME280;15787;49.662;10.162;2024-01-27T13:06:29;101134.19;;;9.24;64.83
28588;BME280;15787;49.662;10.162;2024-01-27T13:09:04;101130.38;;;8.90;63.88
28588;BME280;15787;49.662;10.162;2024-01-27T13:11:39;101121.28;;;8.93;63.38
28588;BME280;15787;49.662;10.162;2024-01-27T13:14:14;101116.44;;;9.13;65.32
28588;BME280;15787;49.662;10.162;2024-01-27T13:16:49;101105.56;;;8.62;65.18
28588;BME280;15787;49.662;10.162;2024-01-27T13:19:25;101102.47;;;9.32;66.01
28588;BME280;15787;49.662;10.162;2024-01-27T13:21:59;101088.47;;;9.54;63.61
28588;BME280;15787;49.662;10.162;2024-01-27T13:24:32;101080.97;;;10.14;61.64
28588;BME280;15787;49.662;10.162;2024-01-27T13:27:07;101085.88;;;9.69;62.66